Time;durP1;ratioP1;P1;durP2;ratioP2;P2;SDS_P1;SDS_P2;PMS_P1;PMS_P2;Temp;Humidity;BMP_temperature;BMP_pressure;BME280_temperature;BME280_humidity;BME280_pressure;Samples;Min_cycle;Max_cycle;Signal;HPM_P1;HPM_P2
2021/05/19 00:00:48;;;;;;;6.00;3.35;;;7.10;99.90;;;;;;5041725;28;20036;-75
2021/05/19 00:03:14;;;;;;;4.30;3.38;;;7.20;99.90;;;;;;5053214;28;20033;-75
2021/05/19 00:05:40;;;;;;;3.90;3.60;;;7.40;99.90;;;;;;5053091;28;20028;-75
2021/05/19 00:08:07;;;;;;;7.80;4.03;;;7.50;99.90;;;;;;5052939;28;20111;-76
2021/05/19 00:10:33;;;;;;;4.18;3.75;;;7.40;99.90;;;;;;5052652;28;20484;-73
2021/05/19 00:12:58;;;;;;;4.45;4.05;;;7.40;99.90;;;;;;5043120;28;20025;-74
2021/05/19 00:15:24;;;;;;;4.13;3.00;;;7.50;99.90;;;;;;5052746;28;20127;-74
2021/05/19 00:17:50;;;;;;;3.50;3.17;;;7.60;99.90;;;;;;5040423;28;20032;-74
2021/05/19 00:20:16;;;;;;;3.20;2.90;;;7.50;99.90;;;;;;5052523;28;20021;-74
2021/05/19 00:22:42;;;;;;;3.72;3.42;;;7.50;99.90;;;;;;5034865;28;20017;-74
2021/05/19 00:25:08;;;;;;;4.97;3.33;;;7.60;99.90;;;;;;5045960;28;20028;-73
2021/05/19 00:27:34;;;;;;;5.38;3.97;;;7.80;99.90;;;;;;5052388;28;20032;-74
2021/05/19 00:30:00;;;;;;;3.85;3.55;;;7.90;99.90;;;;;;5042684;28;20029;-74
2021/05/19 00:32:26;;;;;;;4.20;3.80;;;8.00;99.90;;;;;;5052479;28;20400;-74
2021/05/19 00:34:51;;;;;;;4.68;4.10;;;7.90;99.90;;;;;;5052387;28;20036;-74
2021/05/19 00:37:17;;;;;;;4.60;4.10;;;7.80;99.90;;;;;;5038965;28;20194;-74
2021/05/19 00:39:44;;;;;;;5.53;3.85;;;7.40;99.90;;;;;;5051847;28;20499;-74
2021/05/19 00:42:14;;;;;;;5.82;3.47;;;7.30;99.90;;;;;;5052242;28;20024;-74
2021/05/19 00:44:40;;;;;;;6.13;3.63;;;7.40;99.90;;;;;;5051864;28;20389;-73
2021/05/19 00:47:05;;;;;;;5.03;3.88;;;7.30;99.90;;;;;;5052092;28;20043;-74
2021/05/19 00:49:32;;;;;;;3.88;3.45;;;7.20;99.90;;;;;;5052135;28;20079;-74
2021/05/19 00:51:58;;;;;;;4.32;3.15;;;7.40;99.90;;;;;;5052091;28;20025;-74
2021/05/19 00:54:23;;;;;;;4.38;3.88;;;7.70;99.90;;;;;;5051829;28;20092;-74
2021/05/19 00:56:50;;;;;;;4.50;4.10;;;7.70;99.90;;;;;;5052192;28;20499;-75
2021/05/19 00:59:17;;;;;;;5.07;4.43;;;7.70;99.90;;;;;;5051994;28;20029;-76
2021/05/19 01:01:43;;;;;;;5.55;4.00;;;7.50;99.90;;;;;;5045141;28;20059;-74
2021/05/19 01:04:08;;;;;;;5.35;4.28;;;7.30;99.90;;;;;;5051948;28;20021;-74
2021/05/19 01:06:47;;;;;;;6.10;4.50;;;7.10;99.90;;;;;;5042676;28;20373;-74
2021/05/19 01:11:57;;;;;;;5.45;4.40;;;7.20;99.90;;;;;;5052184;28;20032;-75
2021/05/19 01:14:23;;;;;;;7.05;3.80;;;7.40;99.90;;;;;;5051842;28;20033;-75
2021/05/19 01:16:49;;;;;;;4.30;3.70;;;7.40;99.90;;;;;;5051796;28;20029;-76
2021/05/19 01:19:18;;;;;;;4.55;4.15;;;7.50;99.90;;;;;;5038940;28;20127;-76
2021/05/19 01:21:47;;;;;;;5.25;4.38;;;7.60;99.90;;;;;;5051630;28;20021;-76
2021/05/19 01:24:13;;;;;;;4.60;4.20;;;7.80;99.90;;;;;;5030164;28;20025;-76
2021/05/19 01:26:39;;;;;;;5.60;4.43;;;7.60;99.90;;;;;;5051612;28;20036;-75
2021/05/19 01:29:06;;;;;;;5.43;4.00;;;7.50;99.90;;;;;;5051242;28;20037;-76
2021/05/19 01:31:32;;;;;;;5.45;4.88;;;7.50;99.90;;;;;;5051649;28;20028;-76
2021/05/19 01:33:57;;;;;;;5.47;4.20;;;7.40;99.90;;;;;;5041977;28;20033;-76
2021/05/19 01:36:23;;;;;;;6.05;4.82;;;7.40;99.90;;;;;;5047006;28;20053;-76
2021/05/19 01:38:48;;;;;;;4.25;3.85;;;7.20;99.90;;;;;;5051156;28;20036;-76
2021/05/19 01:41:14;;;;;;;5.53;4.80;;;7.40;99.90;;;;;;5051447;28;20029;-75
2021/05/19 01:43:40;;;;;;;5.25;4.50;;;7.40;99.90;;;;;;5051474;28;20112;-76
2021/05/19 01:46:06;;;;;;;5.13;4.10;;;7.50;99.90;;;;;;5051471;28;20102;-76
2021/05/19 01:48:34;;;;;;;4.82;4.43;;;7.50;99.90;;;;;;5051480;28;20075;-76
2021/05/19 01:51:01;;;;;;;6.82;4.85;;;7.70;99.90;;;;;;5051093;28;20480;-76
2021/05/19 01:53:28;;;;;;;6.85;4.75;;;7.60;99.90;;;;;;5035865;28;20029;-76
2021/05/19 01:55:54;;;;;;;8.55;5.70;;;7.50;99.90;;;;;;5051266;28;20028;-76
2021/05/19 01:58:20;;;;;;;8.00;6.30;;;7.40;99.90;;;;;;5055562;28;20032;-76
2021/05/19 02:00:46;;;;;;;7.47;5.25;;;7.00;99.90;;;;;;5055286;28;20025;-75
2021/05/19 02:03:12;;;;;;;6.28;5.57;;;6.50;99.90;;;;;;5055398;28;20033;-76
2021/05/19 02:05:38;;;;;;;6.32;5.00;;;6.60;99.90;;;;;;5045667;28;20553;-75
2021/05/19 02:08:06;;;;;;;10.25;6.75;;;6.80;99.90;;;;;;5055216;28;20485;-75
2021/05/19 02:10:33;;;;;;;5.38;4.82;;;6.70;99.90;;;;;;5055147;28;20446;-76
2021/05/19 02:13:05;;;;;;;5.10;4.60;;;6.70;99.90;;;;;;5055232;28;20566;-76
2021/05/19 02:15:31;;;;;;;6.80;5.28;;;6.80;99.90;;;;;;5055222;28;20037;-76
2021/05/19 02:17:58;;;;;;;5.53;4.90;;;6.80;99.90;;;;;;5045311;28;20640;-76
2021/05/19 02:20:24;;;;;;;6.65;5.10;;;6.70;99.90;;;;;;5054949;28;20025;-76
2021/05/19 02:22:50;;;;;;;5.40;4.90;;;6.80;99.90;;;;;;5054936;28;20102;-75
2021/05/19 02:25:18;;;;;;;5.20;4.70;;;6.80;99.90;;;;;;5054800;28;20105;-76
2021/05/19 02:27:45;;;;;;;5.03;4.53;;;6.80;99.90;;;;;;5054845;28;20023;-75
2021/05/19 02:30:11;;;;;;;5.88;4.82;;;6.80;99.90;;;;;;5054681;28;20515;-76
2021/05/19 02:32:38;;;;;;;5.82;5.00;;;6.80;99.90;;;;;;5054620;28;20075;-76
2021/05/19 02:35:04;;;;;;;5.80;5.10;;;7.00;99.90;;;;;;5054968;28;20643;-76
2021/05/19 02:37:30;;;;;;;5.53;4.65;;;7.00;99.90;;;;;;5054711;28;20021;-76
2021/05/19 02:39:55;;;;;;;6.18;4.80;;;7.10;99.90;;;;;;5054523;28;20083;-76
2021/05/19 02:42:21;;;;;;;7.07;5.40;;;7.30;99.90;;;;;;5054895;28;20109;-76
2021/05/19 02:44:47;;;;;;;7.13;5.93;;;7.40;99.90;;;;;;5054748;28;20108;-75
2021/05/19 02:47:12;;;;;;;6.38;5.35;;;7.20;99.90;;;;;;5056941;28;20021;-75
2021/05/19 02:49:38;;;;;;;8.85;6.03;;;7.00;99.90;;;;;;5057518;28;20025;-74
2021/05/19 02:52:04;;;;;;;7.40;5.90;;;6.90;99.90;;;;;;5039979;28;20025;-75
2021/05/19 02:54:29;;;;;;;13.43;7.20;;;6.80;99.90;;;;;;5057990;28;20021;-75
2021/05/19 02:56:55;;;;;;;8.52;6.90;;;6.70;99.90;;;;;;5057736;28;20039;-75
2021/05/19 02:59:20;;;;;;;7.28;6.43;;;6.60;99.90;;;;;;5039798;28;20056;-75
2021/05/19 03:01:47;;;;;;;8.18;7.38;;;6.70;99.90;;;;;;5057512;28;20028;-75
2021/05/19 03:04:13;;;;;;;10.15;7.80;;;7.00;99.90;;;;;;5039483;28;20067;-75
2021/05/19 03:06:38;;;;;;;10.95;8.70;;;6.90;99.90;;;;;;5056916;28;20082;-75
2021/05/19 03:09:05;;;;;;;9.57;7.70;;;6.80;99.90;;;;;;5056655;28;20029;-74
2021/05/19 03:11:31;;;;;;;8.60;7.68;;;7.00;99.90;;;;;;5057485;28;20074;-74
2021/05/19 03:13:57;;;;;;;10.93;8.07;;;6.90;99.90;;;;;;5055729;28;20021;-75
2021/05/19 03:16:22;;;;;;;8.30;7.38;;;6.90;99.90;;;;;;5054447;28;20830;-75
2021/05/19 03:18:48;;;;;;;12.77;8.07;;;7.00;99.90;;;;;;5054422;28;20380;-75
2021/05/19 03:21:14;;;;;;;10.90;8.13;;;7.20;99.90;;;;;;5054516;28;20071;-75
2021/05/19 03:23:40;;;;;;;9.45;8.05;;;7.50;99.90;;;;;;5036529;28;20056;-75
2021/05/19 03:26:06;;;;;;;10.30;8.27;;;7.40;99.90;;;;;;5053999;28;20032;-76
2021/05/19 03:28:31;;;;;;;10.63;8.10;;;7.40;99.90;;;;;;5053847;28;20488;-75
2021/05/19 03:30:57;;;;;;;11.95;9.55;;;7.30;99.90;;;;;;5053982;28;20036;-76
2021/05/19 03:33:22;;;;;;;11.07;9.57;;;7.30;99.90;;;;;;5053996;28;20143;-75
2021/05/19 03:35:49;;;;;;;10.63;9.45;;;7.20;99.90;;;;;;5053913;28;20186;-76
2021/05/19 03:38:15;;;;;;;11.48;9.68;;;7.00;99.90;;;;;;5036022;28;20025;-76
2021/05/19 03:40:41;;;;;;;8.32;7.53;;;7.00;99.90;;;;;;5035678;28;20028;-75
2021/05/19 03:43:06;;;;;;;13.05;10.02;;;7.10;99.90;;;;;;5053666;28;20397;-75
2021/05/19 03:45:32;;;;;;;11.77;10.40;;;7.20;99.90;;;;;;5053542;28;20029;-75
2021/05/19 03:47:58;;;;;;;10.27;9.25;;;7.10;99.90;;;;;;5053323;28;20546;-75
2021/05/19 03:50:27;;;;;;;13.30;11.35;;;7.30;99.90;;;;;;5053296;28;20120;-75
2021/05/19 03:52:54;;;;;;;11.77;10.30;;;7.30;99.90;;;;;;5035379;28;20029;-75
2021/05/19 03:55:20;;;;;;;12.45;10.20;;;7.40;99.90;;;;;;5053392;28;20104;-75
2021/05/19 03:57:45;;;;;;;10.75;8.85;;;7.60;99.90;;;;;;5035402;28;20469;-75
2021/05/19 04:00:15;;;;;;;10.30;9.02;;;7.60;99.90;;;;;;5053131;28;20033;-74
2021/05/19 04:02:40;;;;;;;11.07;9.88;;;7.60;99.90;;;;;;5053182;28;20024;-74
2021/05/19 04:05:07;;;;;;;12.32;10.50;;;7.80;99.90;;;;;;5053216;28;20024;-74
2021/05/19 04:07:32;;;;;;;14.43;10.50;;;7.60;99.90;;;;;;5035411;28;20455;-74
2021/05/19 04:09:58;;;;;;;12.90;10.27;;;7.30;99.90;;;;;;5034844;28;20029;-74
2021/05/19 04:12:24;;;;;;;10.98;9.73;;;7.20;99.90;;;;;;5052903;28;20029;-75
2021/05/19 04:14:49;;;;;;;16.25;11.80;;;7.10;99.90;;;;;;5053142;28;20108;-73
2021/05/19 04:17:15;;;;;;;16.05;11.98;;;7.00;99.90;;;;;;5035132;28;20048;-74
2021/05/19 04:19:41;;;;;;;16.88;12.55;;;6.90;99.90;;;;;;5051853;28;20384;-73
2021/05/19 04:22:07;;;;;;;16.08;11.90;;;6.90;99.90;;;;;;5052805;28;20024;-74
2021/05/19 04:24:33;;;;;;;21.45;14.13;;;6.90;99.90;;;;;;5052801;28;20564;-74
2021/05/19 04:26:58;;;;;;;20.27;15.15;;;6.90;99.90;;;;;;5052614;28;20060;-74
2021/05/19 04:29:24;;;;;;;20.63;17.00;;;6.90;99.90;;;;;;5034398;28;20086;-74
2021/05/19 04:31:49;;;;;;;22.52;19.30;;;7.00;99.90;;;;;;5052590;28;20388;-73
2021/05/19 04:34:15;;;;;;;20.80;18.38;;;7.00;99.90;;;;;;5034708;28;20047;-74
2021/05/19 04:36:40;;;;;;;17.42;15.55;;;7.00;99.90;;;;;;5034649;28;20514;-74
2021/05/19 04:39:06;;;;;;;20.25;18.08;;;7.20;99.90;;;;;;5034346;28;20507;-74
2021/05/19 04:41:32;;;;;;;12.75;11.25;;;7.40;99.90;;;;;;5052338;28;20124;-74
2021/05/19 04:43:57;;;;;;;14.55;11.18;;;7.60;99.90;;;;;;5052640;28;20484;-74
2021/05/19 04:46:23;;;;;;;14.35;11.48;;;7.80;99.90;;;;;;5052366;28;20086;-74
2021/05/19 04:48:49;;;;;;;13.98;10.27;;;7.80;99.90;;;;;;5052183;28;20416;-73
2021/05/19 04:51:15;;;;;;;13.13;11.00;;;7.80;99.90;;;;;;5052044;28;20075;-74
2021/05/19 04:53:41;;;;;;;12.95;11.60;;;7.80;99.90;;;;;;5052299;28;20079;-74
2021/05/19 04:56:07;;;;;;;14.80;12.02;;;7.70;99.90;;;;;;5052190;28;20440;-74
2021/05/19 04:58:32;;;;;;;19.60;15.52;;;7.70;99.90;;;;;;5052333;28;20358;-74
2021/05/19 05:00:58;;;;;;;17.92;14.38;;;7.70;99.90;;;;;;5034098;28;20029;-73
2021/05/19 05:03:24;;;;;;;24.63;20.88;;;7.70;99.90;;;;;;5052044;28;20536;-73
2021/05/19 05:05:51;;;;;;;17.02;15.23;;;7.70;99.90;;;;;;5052297;28;20381;-73
2021/05/19 05:08:17;;;;;;;16.85;14.43;;;7.60;99.90;;;;;;5051834;28;20108;-73
2021/05/19 05:10:43;;;;;;;16.95;13.32;;;7.60;99.90;;;;;;5051584;28;20107;-72
2021/05/19 05:13:08;;;;;;;14.15;12.15;;;7.60;99.90;;;;;;5051835;28;20021;-74
2021/05/19 05:15:34;;;;;;;16.23;13.98;;;7.60;99.90;;;;;;5051819;28;20050;-74
2021/05/19 05:17:59;;;;;;;17.80;14.88;;;7.60;99.90;;;;;;5051717;28;20062;-74
2021/05/19 05:20:25;;;;;;;17.23;13.85;;;7.60;99.90;;;;;;5051595;28;20025;-74
2021/05/19 05:22:50;;;;;;;21.27;17.60;;;7.50;99.90;;;;;;5051742;28;20025;-74
2021/05/19 05:25:18;;;;;;;19.65;15.82;;;7.50;99.90;;;;;;5051712;28;20031;-74
2021/05/19 05:27:46;;;;;;;18.92;15.50;;;7.60;99.90;;;;;;5051726;28;20021;-74
2021/05/19 05:30:13;;;;;;;18.83;16.13;;;7.60;99.90;;;;;;5033328;28;20117;-74
2021/05/19 05:32:38;;;;;;;17.83;15.18;;;7.90;99.90;;;;;;5051560;28;20108;-74
2021/05/19 05:35:05;;;;;;;15.45;13.15;;;8.20;99.90;;;;;;5051607;28;20100;-74
2021/05/19 05:37:30;;;;;;;14.18;12.68;;;8.20;99.90;;;;;;5051377;28;20035;-74
2021/05/19 05:39:56;;;;;;;12.05;10.65;;;8.20;99.90;;;;;;5051181;28;20021;-74
2021/05/19 05:42:21;;;;;;;13.38;11.40;;;8.20;99.90;;;;;;5051491;28;20022;-74
2021/05/19 05:44:47;;;;;;;17.75;10.63;;;8.50;99.90;;;;;;5051324;28;20029;-74
2021/05/19 05:47:12;;;;;;;12.05;9.65;;;8.60;99.90;;;;;;5033188;28;20083;-74
2021/05/19 05:49:38;;;;;;;11.32;10.00;;;8.80;99.90;;;;;;5051019;28;20147;-74
2021/05/19 05:52:04;;;;;;;11.48;10.25;;;9.00;99.90;;;;;;5033333;28;20485;-74
2021/05/19 05:54:29;;;;;;;11.45;9.70;;;8.90;99.90;;;;;;5051330;28;20112;-74
2021/05/19 05:56:56;;;;;;;11.05;8.98;;;9.10;99.90;;;;;;5033523;28;20108;-74
2021/05/19 05:59:22;;;;;;;10.63;9.35;;;9.10;99.90;;;;;;5033114;28;20029;-74
2021/05/19 06:01:48;;;;;;;11.13;9.45;;;8.80;99.90;;;;;;5051410;28;20086;-74
2021/05/19 06:04:13;;;;;;;11.35;9.82;;;8.90;99.90;;;;;;5051184;28;20036;-74
2021/05/19 06:06:39;;;;;;;12.32;9.68;;;8.80;99.90;;;;;;5051311;28;20029;-75
2021/05/19 06:09:06;;;;;;;11.88;9.30;;;8.90;99.90;;;;;;5050857;28;20480;-75
2021/05/19 06:11:32;;;;;;;11.65;10.32;;;9.00;99.90;;;;;;5051260;28;20021;-76
2021/05/19 06:13:57;;;;;;;11.65;9.68;;;8.90;99.90;;;;;;5051096;28;20029;-75
2021/05/19 06:16:23;;;;;;;11.23;10.05;;;9.10;99.90;;;;;;5051037;28;20021;-74
2021/05/19 06:18:48;;;;;;;10.43;9.10;;;9.10;99.90;;;;;;5050653;28;20384;-74
2021/05/19 06:21:14;;;;;;;10.80;9.75;;;9.30;99.90;;;;;;5049846;28;20036;-74
2021/05/19 06:23:40;;;;;;;12.25;10.95;;;9.60;99.90;;;;;;5051089;28;20039;-74
2021/05/19 06:26:06;;;;;;;13.00;10.70;;;9.70;99.90;;;;;;5051060;28;20025;-74
2021/05/19 06:28:32;;;;;;;11.40;10.20;;;9.50;99.90;;;;;;5050989;28;20031;-74
2021/05/19 06:30:58;;;;;;;10.82;9.40;;;9.30;99.90;;;;;;5050856;28;20508;-74
2021/05/19 06:33:23;;;;;;;17.33;9.75;;;9.40;99.90;;;;;;5051117;28;20021;-74
2021/05/19 06:35:49;;;;;;;14.25;9.55;;;9.60;99.90;;;;;;5051085;28;20021;-74
2021/05/19 06:38:15;;;;;;;11.35;9.50;;;9.60;99.90;;;;;;5033085;28;20500;-74
2021/05/19 06:40:40;;;;;;;10.27;9.05;;;9.80;99.90;;;;;;5050831;28;20033;-74
2021/05/19 06:43:06;;;;;;;9.32;8.43;;;9.90;99.90;;;;;;5035019;28;20017;-75
2021/05/19 06:45:32;;;;;;;10.07;9.07;;;9.90;99.90;;;;;;5036765;28;20147;-74
2021/05/19 06:47:58;;;;;;;12.93;9.90;;;10.20;99.90;;;;;;5037054;28;20017;-75
2021/05/19 06:50:23;;;;;;;12.98;11.40;;;10.30;99.90;;;;;;5054351;28;20078;-74
2021/05/19 06:52:49;;;;;;;15.25;12.40;;;10.20;99.90;;;;;;5036579;28;20472;-74
2021/05/19 06:55:16;;;;;;;14.20;10.80;;;10.30;99.90;;;;;;5054512;28;20029;-74
2021/05/19 06:57:42;;;;;;;14.40;11.00;;;10.30;99.90;;;;;;5054029;28;20017;-74
2021/05/19 07:00:09;;;;;;;11.88;10.63;;;10.20;99.90;;;;;;5054268;28;20108;-75
2021/05/19 07:02:37;;;;;;;12.18;10.55;;;10.10;99.90;;;;;;5036105;28;20032;-74
2021/05/19 07:05:04;;;;;;;11.75;10.48;;;10.80;99.90;;;;;;5054251;28;20516;-74
2021/05/19 07:07:29;;;;;;;12.45;10.93;;;10.60;99.90;;;;;;5036282;28;20029;-75
2021/05/19 07:09:55;;;;;;;12.70;10.82;;;10.40;99.90;;;;;;5053995;28;20029;-73
2021/05/19 07:12:20;;;;;;;13.75;10.50;;;10.30;99.90;;;;;;5036190;28;20485;-74
2021/05/19 07:14:50;;;;;;;12.50;11.20;;;10.30;99.90;;;;;;5036246;28;20025;-75
2021/05/19 07:17:16;;;;;;;13.32;11.57;;;10.30;99.90;;;;;;5054054;28;20017;-73
2021/05/19 07:19:42;;;;;;;12.05;10.38;;;10.30;99.90;;;;;;5053818;28;20032;-74
2021/05/19 07:22:07;;;;;;;13.13;11.10;;;10.20;99.90;;;;;;5053944;28;20029;-74
2021/05/19 07:24:33;;;;;;;15.32;11.85;;;10.20;99.90;;;;;;5054000;28;20435;-74
2021/05/19 07:26:59;;;;;;;11.98;10.10;;;10.40;99.90;;;;;;5053919;28;20037;-75
2021/05/19 07:29:24;;;;;;;11.73;10.25;;;10.50;99.90;;;;;;5053552;28;20108;-74
2021/05/19 07:31:50;;;;;;;12.02;10.20;;;10.40;99.90;;;;;;5053820;28;20021;-74
2021/05/19 07:34:15;;;;;;;18.65;15.32;;;10.60;99.90;;;;;;5035950;28;20032;-75
2021/05/19 07:36:41;;;;;;;11.68;10.38;;;10.60;99.90;;;;;;5035910;28;20051;-75
2021/05/19 07:39:08;;;;;;;11.10;10.00;;;10.90;99.90;;;;;;5053413;28;20017;-74
2021/05/19 07:41:34;;;;;;;11.25;10.00;;;11.40;99.90;;;;;;5053635;28;20458;-75
2021/05/19 07:43:59;;;;;;;11.50;9.57;;;11.60;99.90;;;;;;5053659;28;20021;-74
2021/05/19 07:46:25;;;;;;;10.82;9.50;;;11.80;99.90;;;;;;5053657;28;20065;-75
2021/05/19 07:48:50;;;;;;;10.63;9.52;;;12.00;99.90;;;;;;5035499;28;20032;-74
2021/05/19 07:51:16;;;;;;;11.25;9.10;;;12.30;99.90;;;;;;5052958;28;20024;-74
2021/05/19 07:53:43;;;;;;;11.80;9.23;;;12.30;99.90;;;;;;5052319;28;20029;-74
2021/05/19 07:56:18;;;;;;;12.05;9.95;;;12.00;99.90;;;;;;5052995;28;20021;-74
2021/05/19 07:58:49;;;;;;;10.30;9.20;;;11.80;99.90;;;;;;5035336;28;20174;-75
2021/05/19 08:03:58;;;;;;;10.13;9.02;;;12.30;99.90;;;;;;5053459;28;20063;-75
2021/05/19 08:06:24;;;;;;;10.25;9.25;;;12.10;99.90;;;;;;5053110;28;20116;-75
2021/05/19 08:08:49;;;;;;;10.75;9.65;;;12.30;99.90;;;;;;5052797;28;20033;-74
2021/05/19 08:11:16;;;;;;;11.40;9.10;;;12.10;99.90;;;;;;5052819;28;20501;-74
2021/05/19 08:13:43;;;;;;;12.30;10.20;;;12.00;99.90;;;;;;5052852;28;20025;-74
2021/05/19 08:16:09;;;;;;;13.48;11.40;;;12.20;99.90;;;;;;5052873;28;20025;-75
2021/05/19 08:18:35;;;;;;;9.50;8.18;;;12.60;99.90;;;;;;5052785;28;20029;-75
2021/05/19 08:21:01;;;;;;;13.50;8.52;;;12.70;99.90;;;;;;5052581;28;20096;-76
2021/05/19 08:23:27;;;;;;;10.15;7.93;;;12.60;99.90;;;;;;5052732;28;20112;-76
2021/05/19 08:25:52;;;;;;;10.43;8.85;;;12.60;99.90;;;;;;5034954;28;20021;-76
2021/05/19 08:28:18;;;;;;;9.60;8.63;;;11.90;99.90;;;;;;5034690;28;20025;-76
2021/05/19 08:30:44;;;;;;;9.43;8.52;;;11.70;99.90;;;;;;5052445;28;20469;-76
2021/05/19 08:33:09;;;;;;;11.77;8.40;;;11.70;99.90;;;;;;5034576;28;20476;-75
2021/05/19 08:35:35;;;;;;;10.63;8.65;;;11.60;99.90;;;;;;5034558;28;20056;-75
2021/05/19 08:38:00;;;;;;;10.43;8.10;;;11.60;99.90;;;;;;5052705;28;20029;-75
2021/05/19 08:40:27;;;;;;;8.48;7.55;;;12.00;99.90;;;;;;5052243;28;20029;-76
2021/05/19 08:42:53;;;;;;;9.50;8.60;;;12.20;99.90;;;;;;5052450;28;20025;-75
2021/05/19 08:45:19;;;;;;;9.27;8.27;;;12.30;99.90;;;;;;5052435;28;20044;-75
2021/05/19 08:47:47;;;;;;;9.02;8.05;;;12.90;99.90;;;;;;5052420;28;20051;-75
2021/05/19 08:50:13;;;;;;;7.90;7.10;;;13.00;99.90;;;;;;5052123;28;20048;-75
2021/05/19 08:52:40;;;;;;;9.55;7.28;;;13.00;99.90;;;;;;5034404;28;20481;-75
2021/05/19 08:55:09;;;;;;;8.02;6.53;;;13.10;99.90;;;;;;5052335;28;20024;-74
2021/05/19 08:57:36;;;;;;;8.43;6.78;;;13.20;99.90;;;;;;5034231;28;20116;-74
2021/05/19 09:00:03;;;;;;;11.00;6.38;;;13.60;99.90;;;;;;5034052;28;20025;-75
2021/05/19 09:02:29;;;;;;;6.45;5.53;;;13.90;99.90;;;;;;5051817;28;20171;-75
2021/05/19 09:04:58;;;;;;;8.18;5.80;;;14.20;99.90;;;;;;5051714;28;20528;-75
2021/05/19 09:07:25;;;;;;;6.60;5.30;;;14.20;99.90;;;;;;5052350;28;20028;-75
2021/05/19 09:09:50;;;;;;;6.18;5.40;;;13.70;99.90;;;;;;5052279;28;20025;-75
2021/05/19 09:12:18;;;;;;;6.75;5.72;;;13.50;99.90;;;;;;5034100;28;20121;-75
2021/05/19 09:14:59;;;;;;;5.30;4.80;;;13.20;99.90;;;;;;5051842;28;20013;-75
2021/05/19 09:17:27;;;;;;;6.97;5.30;;;13.40;99.90;;;;;;5051756;28;20017;-75
2021/05/19 09:20:12;;;;;;;6.10;5.35;;;13.70;99.90;;;;;;5051717;28;20025;-75
2021/05/19 09:22:40;;;;;;;6.30;5.50;;;14.00;99.90;;;;;;5040461;28;20029;-75
2021/05/19 09:25:17;;;;;;;16.92;6.50;;;14.00;99.90;;;;;;5033848;28;20033;-75
2021/05/19 09:27:45;;;;;;;8.90;5.53;;;13.90;99.90;;;;;;5033661;28;20021;-75
2021/05/19 09:30:11;;;;;;;4.95;4.40;;;13.60;99.90;;;;;;5051364;28;20108;-74
2021/05/19 09:32:39;;;;;;;5.25;4.30;;;13.40;99.90;;;;;;5051520;28;20025;-75
2021/05/19 09:35:06;;;;;;;5.03;4.10;;;13.70;99.90;;;;;;5051623;28;20020;-74
2021/05/19 09:37:33;;;;;;;3.58;3.20;;;14.30;99.90;;;;;;5033639;28;20071;-74
2021/05/19 09:40:02;;;;;;;4.10;3.67;;;14.00;99.90;;;;;;5033546;28;20094;-74
2021/05/19 09:42:46;;;;;;;7.32;3.80;;;13.90;99.90;;;;;;5033616;28;20029;-74
2021/05/19 09:45:23;;;;;;;6.40;3.70;;;13.60;99.90;;;;;;5031724;28;20025;-74
2021/05/19 09:47:50;;;;;;;5.03;3.90;;;13.20;99.90;;;;;;5047411;28;20056;-74
2021/05/19 09:50:19;;;;;;;5.40;4.45;;;13.60;99.90;;;;;;5051197;28;20028;-74
2021/05/19 09:53:14;;;;;;;5.15;4.20;;;14.20;99.90;;;;;;5033526;28;20086;-74
2021/05/19 09:56:02;;;;;;;5.88;2.97;;;14.10;99.90;;;;;;5033113;28;20024;-74
2021/05/19 09:58:34;;;;;;;4.97;4.47;;;14.40;99.90;;;;;;5059923;28;20032;-75
2021/05/19 10:01:00;;;;;;;3.53;3.22;;;14.50;99.90;;;;;;5050675;28;20013;-74
2021/05/19 10:03:26;;;;;;;3.88;3.20;;;14.70;99.90;;;;;;5066675;28;20052;-74
2021/05/19 10:06:06;;;;;;;3.10;2.80;;;14.60;99.90;;;;;;5043978;28;20021;-74
2021/05/19 10:08:32;;;;;;;4.38;3.33;;;14.90;99.90;;;;;;5050654;28;20064;-74
2021/05/19 10:11:04;;;;;;;4.05;3.50;;;14.90;99.90;;;;;;5042036;28;20044;-74
2021/05/19 10:13:31;;;;;;;3.30;2.97;;;14.50;99.90;;;;;;5051211;28;20014;-74
2021/05/19 10:16:02;;;;;;;3.65;2.60;;;15.00;99.90;;;;;;5038589;28;20025;-74
2021/05/19 10:18:43;;;;;;;3.55;2.63;;;15.50;99.90;;;;;;5049944;28;20032;-74
2021/05/19 10:21:10;;;;;;;4.20;2.58;;;15.30;99.90;;;;;;5054792;28;20013;-74
2021/05/19 10:23:39;;;;;;;3.08;2.75;;;15.50;99.90;;;;;;5054869;28;20480;-74
2021/05/19 10:26:11;;;;;;;4.93;3.63;;;14.90;99.90;;;;;;5054917;28;20070;-74
2021/05/19 10:28:43;;;;;;;4.32;3.83;;;15.00;99.90;;;;;;5054792;28;20025;-74
2021/05/19 10:31:26;;;;;;;4.43;3.58;;;15.20;99.90;;;;;;5054382;28;20017;-74
2021/05/19 10:33:54;;;;;;;7.28;5.07;;;15.50;99.90;;;;;;5051970;28;20108;-74
2021/05/19 10:36:36;;;;;;;5.05;4.40;;;15.50;99.90;;;;;;5054749;28;20101;-74
2021/05/19 10:39:08;;;;;;;6.22;3.85;;;15.60;99.90;;;;;;5054419;28;20024;-74
2021/05/19 10:41:51;;;;;;;5.28;4.22;;;16.00;99.90;;;;;;5054694;28;20025;-74
2021/05/19 10:44:23;;;;;;;5.90;4.55;;;16.20;99.90;;;;;;5048243;28;20129;-75
2021/05/19 10:57:45;;;;;;;9.40;4.80;;;15.80;99.90;;;;;;5052084;28;20064;-75
2021/05/19 11:00:25;;;;;;;6.70;4.95;;;16.10;99.90;;;;;;5053947;28;20448;-74
2021/05/19 11:02:53;;;;;;;6.13;4.43;;;16.30;99.90;;;;;;5054176;28;20408;-74
2021/05/19 11:05:20;;;;;;;4.93;4.05;;;16.40;99.90;;;;;;5054200;28;20104;-74
2021/05/19 11:08:07;;;;;;;4.57;4.18;;;16.40;99.90;;;;;;5054050;28;20076;-74
2021/05/19 11:10:34;;;;;;;5.72;4.80;;;15.90;99.90;;;;;;5065257;28;20025;-74
2021/05/19 11:12:59;;;;;;;5.70;4.75;;;15.40;99.90;;;;;;5054103;28;20423;-74
2021/05/19 11:21:14;;;;;;;6.78;6.00;;;15.30;99.90;;;;;;5053554;28;20024;-74
2021/05/19 11:23:40;;;;;;;6.85;6.22;;;15.00;99.90;;;;;;5044036;28;20021;-74
2021/05/19 11:26:14;;;;;;;7.13;5.72;;;15.20;99.90;;;;;;5053846;28;20059;-74
2021/05/19 11:28:41;;;;;;;4.82;4.32;;;16.00;99.90;;;;;;5053385;28;20033;-75
2021/05/19 11:31:17;;;;;;;4.65;3.67;;;14.70;99.90;;;;;;5053268;28;20029;-74
2021/05/19 11:34:02;;;;;;;9.25;3.42;;;13.70;99.90;;;;;;5053767;28;20025;-74
2021/05/19 11:36:32;;;;;;;4.18;3.38;;;12.90;99.90;;;;;;5035804;28;20396;-74
2021/05/19 11:39:00;;;;;;;4.22;3.17;;;12.60;99.90;;;;;;5053612;28;20025;-75
2021/05/19 11:41:26;;;;;;;4.70;2.70;;;12.30;99.90;;;;;;5053605;28;20069;-74
2021/05/19 11:43:52;;;;;;;3.22;2.70;;;11.90;99.90;;;;;;5053695;28;20060;-74
2021/05/19 11:46:17;;;;;;;4.50;2.72;;;11.50;99.90;;;;;;5035683;28;20033;-74
2021/05/19 11:48:49;;;;;;;4.35;2.88;;;11.50;99.90;;;;;;5053321;28;20033;-74
2021/05/19 11:51:22;;;;;;;4.43;3.28;;;11.40;99.90;;;;;;5053181;28;20028;-74
2021/05/19 11:53:58;;;;;;;4.57;3.78;;;11.40;99.90;;;;;;5053487;28;20108;-74
2021/05/19 11:56:24;;;;;;;3.20;2.88;;;11.30;99.90;;;;;;5053384;28;20067;-74
2021/05/19 11:58:49;;;;;;;3.15;2.83;;;11.20;99.90;;;;;;5053281;28;20459;-74
2021/05/19 12:01:18;;;;;;;3.10;2.80;;;11.20;99.90;;;;;;5035132;28;20558;-74
2021/05/19 12:03:45;;;;;;;4.25;3.85;;;11.30;99.90;;;;;;5035220;28;20021;-74
2021/05/19 12:06:12;;;;;;;3.30;3.00;;;11.40;99.90;;;;;;5053166;28;20427;-75
2021/05/19 12:08:44;;;;;;;3.45;3.15;;;11.50;99.90;;;;;;5053055;28;20040;-75
2021/05/19 12:11:19;;;;;;;3.65;3.35;;;11.50;99.90;;;;;;5022709;28;20021;-75
2021/05/19 12:13:55;;;;;;;5.47;3.78;;;11.40;99.90;;;;;;5053017;28;20099;-74
2021/05/19 12:16:28;;;;;;;;;;;11.10;99.90;;;;;;5053506;28;20055;-74
2021/05/19 12:19:09;;;;;;;5.97;3.85;;;11.30;99.90;;;;;;5034775;28;19911;-74
2021/05/19 12:21:58;;;;;;;6.25;4.35;;;11.30;99.90;;;;;;5052942;28;20036;-74
2021/05/19 12:24:25;;;;;;;7.60;5.00;;;11.50;99.90;;;;;;5038454;28;20044;-73
2021/05/19 12:26:55;;;;;;;5.85;5.35;;;11.30;99.90;;;;;;5052786;28;20060;-73
2021/05/19 12:29:32;;;;;;;6.38;5.55;;;11.10;99.90;;;;;;5052300;28;20484;-74
2021/05/19 12:32:21;;;;;;;7.35;5.90;;;10.80;99.90;;;;;;5052664;28;20035;-75
2021/05/19 12:35:08;;;;;;;6.90;5.68;;;10.90;99.90;;;;;;5034668;28;20794;-75
2021/05/19 12:37:51;;;;;;;7.25;5.43;;;10.90;99.90;;;;;;5034698;28;20032;-73
2021/05/19 12:40:19;;;;;;;6.00;4.75;;;11.20;99.90;;;;;;5038632;28;20120;-74
2021/05/19 12:42:55;;;;;;;4.53;3.30;;;11.60;99.90;;;;;;5052583;28;20507;-73
2021/05/19 12:45:22;;;;;;;;;;;12.10;99.90;;;;;;5053023;28;20029;-73
2021/05/19 12:48:00;;;;;;;5.25;4.50;;;12.50;99.90;;;;;;5052823;28;19927;-73
2021/05/19 12:50:35;;;;;;;3.60;3.30;;;13.80;99.90;;;;;;5034311;28;20128;-74
2021/05/19 12:53:00;;;;;;;2.72;2.53;;;14.70;99.90;;;;;;5052109;28;20033;-76
2021/05/19 12:55:26;;;;;;;3.17;2.50;;;14.90;99.90;;;;;;5051649;28;20032;-76
2021/05/19 12:58:09;;;;;;;2.70;2.50;;;15.50;99.90;;;;;;5052039;28;20585;-75
2021/05/19 13:00:35;;;;;;;2.15;2.00;;;15.80;99.90;;;;;;5050957;28;20060;-74
2021/05/19 13:03:01;;;;;;;2.50;2.30;;;16.00;99.90;;;;;;5034255;28;20520;-74
2021/05/19 13:05:29;;;;;;;2.67;2.30;;;16.10;99.90;;;;;;5051897;28;20037;-74
2021/05/19 13:07:55;;;;;;;2.97;2.70;;;15.50;99.90;;;;;;5033890;28;20151;-76
2021/05/19 13:13:20;;;;;;;2.45;2.25;;;15.90;99.90;;;;;;5051883;28;20013;-74